sensor_id;sensor_type;location;lat;lon;timestamp;P1;durP1;ratioP1;P2;durP2;ratioP2
5157;SDS011;2598;52.364;9.772;2022-07-09T00:00:51;11.07;;;2.73;;
5157;SDS011;2598;52.364;9.772;2022-07-09T00:03:17;10.70;;;2.50;;
5157;SDS011;2598;52.364;9.772;2022-07-09T00:05:43;9.70;;;2.60;;
5157;SDS011;2598;52.364;9.772;2022-07-09T00:08:09;12.83;;;2.63;;
5157;SDS011;2598;52.364;9.772;2022-07-09T00:10:35;10.97;;;2.50;;
5157;SDS011;2598;52.364;9.772;2022-07-09T00:13:01;9.70;;;2.43;;
5157;SDS011;2598;52.364;9.772;2022-07-09T00:15:27;12.73;;;2.67;;
5157;SDS011;2598;52.364;9.772;2022-07-09T00:17:53;12.00;;;2.47;;
5157;SDS011;2598;52.364;9.772;2022-07-09T00:20:19;15.87;;;2.47;;
5157;SDS011;2598;52.364;9.772;2022-07-09T00:22:45;11.33;;;2.60;;
5157;SDS011;2598;52.364;9.772;2022-07-09T00:25:11;18.57;;;3.37;;
5157;SDS011;2598;52.364;9.772;2022-07-09T00:27:37;10.67;;;2.67;;
5157;SDS011;2598;52.364;9.772;2022-07-09T00:30:03;10.43;;;2.40;;
5157;SDS011;2598;52.364;9.772;2022-07-09T00:32:29;15.67;;;3.17;;
5157;SDS011;2598;52.364;9.772;2022-07-09T00:34:55;9.23;;;2.40;;
5157;SDS011;2598;52.364;9.772;2022-07-09T00:37:21;14.40;;;2.33;;
5157;SDS011;2598;52.364;9.772;2022-07-09T00:39:47;11.70;;;2.40;;
5157;SDS011;2598;52.364;9.772;2022-07-09T00:42:13;10.60;;;2.70;;
5157;SDS011;2598;52.364;9.772;2022-07-09T00:44:39;9.57;;;2.67;;
5157;SDS011;2598;52.364;9.772;2022-07-09T00:47:06;13.40;;;2.80;;
5157;SDS011;2598;52.364;9.772;2022-07-09T00:49:34;12.03;;;2.77;;
5157;SDS011;2598;52.364;9.772;2022-07-09T00:52:01;14.47;;;3.27;;
5157;SDS011;2598;52.364;9.772;2022-07-09T00:54:27;12.23;;;3.20;;
5157;SDS011;2598;52.364;9.772;2022-07-09T00:56:54;10.90;;;2.80;;
5157;SDS011;2598;52.364;9.772;2022-07-09T00:59:21;10.50;;;2.53;;
5157;SDS011;2598;52.364;9.772;2022-07-09T01:01:48;13.40;;;2.83;;
5157;SDS011;2598;52.364;9.772;2022-07-09T01:04:14;11.90;;;3.13;;
5157;SDS011;2598;52.364;9.772;2022-07-09T01:06:40;10.47;;;3.13;;
5157;SDS011;2598;52.364;9.772;2022-07-09T01:09:07;12.20;;;3.43;;
5157;SDS011;2598;52.364;9.772;2022-07-09T01:11:33;12.53;;;3.77;;
5157;SDS011;2598;52.364;9.772;2022-07-09T01:13:59;20.37;;;3.20;;
5157;SDS011;2598;52.364;9.772;2022-07-09T01:16:32;12.50;;;3.20;;
5157;SDS011;2598;52.364;9.772;2022-07-09T01:18:58;15.20;;;3.40;;
5157;SDS011;2598;52.364;9.772;2022-07-09T01:21:24;15.00;;;3.20;;
5157;SDS011;2598;52.364;9.772;2022-07-09T01:23:50;10.60;;;3.20;;
5157;SDS011;2598;52.364;9.772;2022-07-09T01:26:16;14.27;;;3.70;;
5157;SDS011;2598;52.364;9.772;2022-07-09T01:28:44;15.53;;;3.43;;
5157;SDS011;2598;52.364;9.772;2022-07-09T01:31:11;11.00;;;3.00;;
5157;SDS011;2598;52.364;9.772;2022-07-09T01:33:37;15.97;;;3.30;;
5157;SDS011;2598;52.364;9.772;2022-07-09T01:36:03;14.90;;;3.37;;
5157;SDS011;2598;52.364;9.772;2022-07-09T01:38:29;16.70;;;3.57;;
5157;SDS011;2598;52.364;9.772;2022-07-09T01:40:55;13.80;;;3.53;;
5157;SDS011;2598;52.364;9.772;2022-07-09T01:43:22;12.97;;;3.50;;
5157;SDS011;2598;52.364;9.772;2022-07-09T01:45:48;14.47;;;3.80;;
5157;SDS011;2598;52.364;9.772;2022-07-09T01:48:14;15.57;;;4.40;;
5157;SDS011;2598;52.364;9.772;2022-07-09T01:50:40;16.40;;;3.57;;
5157;SDS011;2598;52.364;9.772;2022-07-09T01:53:06;14.53;;;3.47;;
5157;SDS011;2598;52.364;9.772;2022-07-09T01:55:32;14.83;;;3.77;;
5157;SDS011;2598;52.364;9.772;2022-07-09T01:57:58;12.07;;;3.40;;
5157;SDS011;2598;52.364;9.772;2022-07-09T02:00:24;15.20;;;3.80;;
5157;SDS011;2598;52.364;9.772;2022-07-09T02:02:52;11.40;;;3.50;;
5157;SDS011;2598;52.364;9.772;2022-07-09T02:05:18;18.80;;;3.43;;
5157;SDS011;2598;52.364;9.772;2022-07-09T02:07:44;14.17;;;3.90;;
5157;SDS011;2598;52.364;9.772;2022-07-09T02:10:11;17.53;;;3.20;;
5157;SDS011;2598;52.364;9.772;2022-07-09T02:12:37;15.03;;;3.80;;
5157;SDS011;2598;52.364;9.772;2022-07-09T02:15:04;12.27;;;3.40;;
5157;SDS011;2598;52.364;9.772;2022-07-09T02:17:30;12.43;;;3.77;;
5157;SDS011;2598;52.364;9.772;2022-07-09T02:19:57;13.10;;;3.40;;
5157;SDS011;2598;52.364;9.772;2022-07-09T02:22:23;12.00;;;3.33;;
5157;SDS011;2598;52.364;9.772;2022-07-09T02:24:49;12.57;;;3.50;;
5157;SDS011;2598;52.364;9.772;2022-07-09T02:27:15;11.70;;;2.73;;
5157;SDS011;2598;52.364;9.772;2022-07-09T02:29:41;12.10;;;3.40;;
5157;SDS011;2598;52.364;9.772;2022-07-09T02:32:07;15.50;;;3.70;;
5157;SDS011;2598;52.364;9.772;2022-07-09T02:34:35;12.53;;;3.40;;
5157;SDS011;2598;52.364;9.772;2022-07-09T02:37:01;17.60;;;3.73;;
5157;SDS011;2598;52.364;9.772;2022-07-09T02:39:27;13.37;;;3.50;;
5157;SDS011;2598;52.364;9.772;2022-07-09T02:41:53;11.83;;;2.90;;
5157;SDS011;2598;52.364;9.772;2022-07-09T02:44:19;12.67;;;3.50;;
5157;SDS011;2598;52.364;9.772;2022-07-09T02:46:45;15.97;;;2.83;;
5157;SDS011;2598;52.364;9.772;2022-07-09T02:49:11;12.70;;;3.47;;
5157;SDS011;2598;52.364;9.772;2022-07-09T02:51:37;16.73;;;3.10;;
5157;SDS011;2598;52.364;9.772;2022-07-09T02:54:04;10.87;;;3.00;;
5157;SDS011;2598;52.364;9.772;2022-07-09T02:56:30;11.03;;;3.00;;
5157;SDS011;2598;52.364;9.772;2022-07-09T02:58:56;11.43;;;2.80;;
5157;SDS011;2598;52.364;9.772;2022-07-09T03:01:22;13.70;;;3.00;;
5157;SDS011;2598;52.364;9.772;2022-07-09T03:03:48;11.57;;;2.77;;
5157;SDS011;2598;52.364;9.772;2022-07-09T03:06:14;10.87;;;2.83;;
5157;SDS011;2598;52.364;9.772;2022-07-09T03:08:40;9.97;;;2.73;;
5157;SDS011;2598;52.364;9.772;2022-07-09T03:11:06;13.90;;;3.40;;
5157;SDS011;2598;52.364;9.772;2022-07-09T03:13:35;13.00;;;3.20;;
5157;SDS011;2598;52.364;9.772;2022-07-09T03:16:04;12.70;;;3.27;;
5157;SDS011;2598;52.364;9.772;2022-07-09T03:18:31;14.57;;;3.73;;
5157;SDS011;2598;52.364;9.772;2022-07-09T03:20:58;12.43;;;2.97;;
5157;SDS011;2598;52.364;9.772;2022-07-09T03:23:24;12.37;;;3.40;;
5157;SDS011;2598;52.364;9.772;2022-07-09T03:25:50;10.73;;;3.27;;
5157;SDS011;2598;52.364;9.772;2022-07-09T03:28:16;14.97;;;4.40;;
5157;SDS011;2598;52.364;9.772;2022-07-09T03:30:42;17.83;;;4.23;;
5157;SDS011;2598;52.364;9.772;2022-07-09T03:33:08;11.43;;;3.13;;
5157;SDS011;2598;52.364;9.772;2022-07-09T03:35:34;14.50;;;4.07;;
5157;SDS011;2598;52.364;9.772;2022-07-09T03:38:00;12.33;;;3.90;;
5157;SDS011;2598;52.364;9.772;2022-07-09T03:40:25;13.77;;;4.03;;
5157;SDS011;2598;52.364;9.772;2022-07-09T03:42:51;12.37;;;3.67;;
5157;SDS011;2598;52.364;9.772;2022-07-09T03:45:17;13.10;;;3.60;;
5157;SDS011;2598;52.364;9.772;2022-07-09T03:47:43;14.87;;;3.83;;
5157;SDS011;2598;52.364;9.772;2022-07-09T03:50:10;11.80;;;4.03;;
5157;SDS011;2598;52.364;9.772;2022-07-09T03:52:37;12.87;;;3.60;;
5157;SDS011;2598;52.364;9.772;2022-07-09T03:55:03;13.70;;;4.13;;
5157;SDS011;2598;52.364;9.772;2022-07-09T03:57:29;13.33;;;3.83;;
5157;SDS011;2598;52.364;9.772;2022-07-09T03:59:55;11.40;;;3.57;;
5157;SDS011;2598;52.364;9.772;2022-07-09T04:02:21;14.93;;;3.53;;
5157;SDS011;2598;52.364;9.772;2022-07-09T04:04:47;13.40;;;3.23;;
5157;SDS011;2598;52.364;9.772;2022-07-09T04:07:13;13.87;;;4.40;;
5157;SDS011;2598;52.364;9.772;2022-07-09T04:09:39;13.40;;;3.30;;
5157;SDS011;2598;52.364;9.772;2022-07-09T04:12:06;12.00;;;3.37;;
5157;SDS011;2598;52.364;9.772;2022-07-09T04:14:32;15.93;;;3.30;;
5157;SDS011;2598;52.364;9.772;2022-07-09T04:16:58;12.07;;;3.20;;
5157;SDS011;2598;52.364;9.772;2022-07-09T04:19:24;12.73;;;3.50;;
5157;SDS011;2598;52.364;9.772;2022-07-09T04:21:50;16.37;;;3.80;;
5157;SDS011;2598;52.364;9.772;2022-07-09T04:24:16;10.83;;;2.87;;
5157;SDS011;2598;52.364;9.772;2022-07-09T04:26:42;15.53;;;3.40;;
5157;SDS011;2598;52.364;9.772;2022-07-09T04:29:09;16.33;;;3.60;;
5157;SDS011;2598;52.364;9.772;2022-07-09T04:31:35;12.43;;;3.77;;
5157;SDS011;2598;52.364;9.772;2022-07-09T04:34:01;11.93;;;3.40;;
5157;SDS011;2598;52.364;9.772;2022-07-09T04:36:27;17.70;;;3.53;;
5157;SDS011;2598;52.364;9.772;2022-07-09T04:38:54;10.30;;;2.77;;
5157;SDS011;2598;52.364;9.772;2022-07-09T04:41:21;13.83;;;3.77;;
5157;SDS011;2598;52.364;9.772;2022-07-09T04:43:47;14.80;;;3.73;;
5157;SDS011;2598;52.364;9.772;2022-07-09T04:46:13;14.70;;;4.80;;
5157;SDS011;2598;52.364;9.772;2022-07-09T04:48:41;15.20;;;4.00;;
5157;SDS011;2598;52.364;9.772;2022-07-09T04:51:07;14.43;;;3.70;;
5157;SDS011;2598;52.364;9.772;2022-07-09T04:53:33;13.60;;;4.00;;
5157;SDS011;2598;52.364;9.772;2022-07-09T04:55:59;14.53;;;3.80;;
5157;SDS011;2598;52.364;9.772;2022-07-09T04:58:25;14.20;;;4.30;;
5157;SDS011;2598;52.364;9.772;2022-07-09T05:00:51;15.20;;;4.37;;
5157;SDS011;2598;52.364;9.772;2022-07-09T05:03:17;14.90;;;4.40;;
5157;SDS011;2598;52.364;9.772;2022-07-09T05:05:42;13.93;;;4.33;;
5157;SDS011;2598;52.364;9.772;2022-07-09T05:08:08;14.37;;;4.00;;
5157;SDS011;2598;52.364;9.772;2022-07-09T05:10:34;11.97;;;4.50;;
5157;SDS011;2598;52.364;9.772;2022-07-09T05:13:00;10.30;;;3.67;;
5157;SDS011;2598;52.364;9.772;2022-07-09T05:15:26;20.43;;;4.37;;
5157;SDS011;2598;52.364;9.772;2022-07-09T05:17:56;16.50;;;5.23;;
5157;SDS011;2598;52.364;9.772;2022-07-09T05:20:21;13.03;;;4.70;;
5157;SDS011;2598;52.364;9.772;2022-07-09T05:22:47;14.43;;;5.03;;
5157;SDS011;2598;52.364;9.772;2022-07-09T05:25:13;14.87;;;5.47;;
5157;SDS011;2598;52.364;9.772;2022-07-09T05:27:40;16.57;;;4.60;;
5157;SDS011;2598;52.364;9.772;2022-07-09T05:30:06;17.40;;;6.10;;
5157;SDS011;2598;52.364;9.772;2022-07-09T05:32:33;16.63;;;5.23;;
5157;SDS011;2598;52.364;9.772;2022-07-09T05:34:59;16.67;;;6.00;;
5157;SDS011;2598;52.364;9.772;2022-07-09T05:37:25;19.37;;;6.40;;
5157;SDS011;2598;52.364;9.772;2022-07-09T05:39:50;14.17;;;6.20;;
5157;SDS011;2598;52.364;9.772;2022-07-09T05:42:16;14.63;;;6.07;;
5157;SDS011;2598;52.364;9.772;2022-07-09T05:44:42;15.60;;;7.00;;
5157;SDS011;2598;52.364;9.772;2022-07-09T05:47:08;14.27;;;5.73;;
5157;SDS011;2598;52.364;9.772;2022-07-09T05:49:34;17.50;;;7.00;;
5157;SDS011;2598;52.364;9.772;2022-07-09T05:52:00;18.67;;;6.83;;
5157;SDS011;2598;52.364;9.772;2022-07-09T05:54:27;18.13;;;5.80;;
5157;SDS011;2598;52.364;9.772;2022-07-09T05:56:53;19.57;;;6.77;;
5157;SDS011;2598;52.364;9.772;2022-07-09T05:59:19;18.10;;;6.70;;
5157;SDS011;2598;52.364;9.772;2022-07-09T06:01:45;19.60;;;6.33;;
5157;SDS011;2598;52.364;9.772;2022-07-09T06:04:11;15.77;;;5.93;;
5157;SDS011;2598;52.364;9.772;2022-07-09T06:06:37;14.20;;;5.87;;
5157;SDS011;2598;52.364;9.772;2022-07-09T06:09:03;13.77;;;5.40;;
5157;SDS011;2598;52.364;9.772;2022-07-09T06:11:29;17.50;;;6.93;;
5157;SDS011;2598;52.364;9.772;2022-07-09T06:13:55;16.33;;;5.30;;
5157;SDS011;2598;52.364;9.772;2022-07-09T06:16:21;17.70;;;6.60;;
5157;SDS011;2598;52.364;9.772;2022-07-09T06:18:47;14.30;;;4.93;;
5157;SDS011;2598;52.364;9.772;2022-07-09T06:21:13;18.00;;;5.03;;
5157;SDS011;2598;52.364;9.772;2022-07-09T06:23:40;15.83;;;4.43;;
5157;SDS011;2598;52.364;9.772;2022-07-09T06:26:06;18.07;;;5.20;;
5157;SDS011;2598;52.364;9.772;2022-07-09T06:28:32;18.20;;;6.13;;
5157;SDS011;2598;52.364;9.772;2022-07-09T06:30:58;11.40;;;4.00;;
5157;SDS011;2598;52.364;9.772;2022-07-09T06:33:24;17.40;;;4.03;;
5157;SDS011;2598;52.364;9.772;2022-07-09T06:35:50;13.63;;;4.33;;
5157;SDS011;2598;52.364;9.772;2022-07-09T06:38:16;13.00;;;4.00;;
5157;SDS011;2598;52.364;9.772;2022-07-09T06:40:42;18.90;;;4.27;;
5157;SDS011;2598;52.364;9.772;2022-07-09T06:43:08;12.07;;;4.10;;
5157;SDS011;2598;52.364;9.772;2022-07-09T06:45:35;12.27;;;3.70;;
5157;SDS011;2598;52.364;9.772;2022-07-09T06:48:01;11.83;;;3.50;;
5157;SDS011;2598;52.364;9.772;2022-07-09T06:50:27;11.50;;;3.27;;
5157;SDS011;2598;52.364;9.772;2022-07-09T06:52:53;11.13;;;3.33;;
5157;SDS011;2598;52.364;9.772;2022-07-09T06:55:19;14.40;;;3.63;;
5157;SDS011;2598;52.364;9.772;2022-07-09T06:57:45;10.43;;;3.10;;
5157;SDS011;2598;52.364;9.772;2022-07-09T07:00:11;9.63;;;2.60;;
5157;SDS011;2598;52.364;9.772;2022-07-09T07:02:37;11.40;;;3.00;;
5157;SDS011;2598;52.364;9.772;2022-07-09T07:05:03;15.10;;;3.37;;
5157;SDS011;2598;52.364;9.772;2022-07-09T07:07:29;11.87;;;2.80;;
5157;SDS011;2598;52.364;9.772;2022-07-09T07:09:55;13.37;;;2.47;;
5157;SDS011;2598;52.364;9.772;2022-07-09T07:12:21;12.03;;;2.30;;
5157;SDS011;2598;52.364;9.772;2022-07-09T07:14:47;10.17;;;2.57;;
5157;SDS011;2598;52.364;9.772;2022-07-09T07:17:13;12.33;;;2.50;;
5157;SDS011;2598;52.364;9.772;2022-07-09T07:19:39;9.07;;;2.10;;
5157;SDS011;2598;52.364;9.772;2022-07-09T07:22:05;10.97;;;3.23;;
5157;SDS011;2598;52.364;9.772;2022-07-09T07:24:31;8.60;;;2.07;;
5157;SDS011;2598;52.364;9.772;2022-07-09T07:26:57;9.97;;;2.30;;
5157;SDS011;2598;52.364;9.772;2022-07-09T07:29:23;15.77;;;2.57;;
5157;SDS011;2598;52.364;9.772;2022-07-09T07:31:49;10.40;;;2.30;;
5157;SDS011;2598;52.364;9.772;2022-07-09T07:34:16;10.50;;;2.40;;
5157;SDS011;2598;52.364;9.772;2022-07-09T07:36:44;10.33;;;2.20;;
5157;SDS011;2598;52.364;9.772;2022-07-09T07:39:10;12.00;;;2.50;;
5157;SDS011;2598;52.364;9.772;2022-07-09T07:41:36;11.47;;;2.47;;
5157;SDS011;2598;52.364;9.772;2022-07-09T07:44:02;13.90;;;3.07;;
5157;SDS011;2598;52.364;9.772;2022-07-09T07:46:28;10.13;;;2.93;;
5157;SDS011;2598;52.364;9.772;2022-07-09T07:48:54;9.10;;;2.43;;
5157;SDS011;2598;52.364;9.772;2022-07-09T07:51:20;10.20;;;2.40;;
5157;SDS011;2598;52.364;9.772;2022-07-09T07:53:46;9.80;;;2.27;;
5157;SDS011;2598;52.364;9.772;2022-07-09T07:56:12;9.43;;;1.90;;
5157;SDS011;2598;52.364;9.772;2022-07-09T07:58:38;10.23;;;2.27;;
5157;SDS011;2598;52.364;9.772;2022-07-09T08:01:04;10.10;;;2.37;;
5157;SDS011;2598;52.364;9.772;2022-07-09T08:03:30;11.77;;;2.73;;
5157;SDS011;2598;52.364;9.772;2022-07-09T08:05:56;10.53;;;2.40;;
5157;SDS011;2598;52.364;9.772;2022-07-09T08:08:22;8.33;;;1.80;;
5157;SDS011;2598;52.364;9.772;2022-07-09T08:10:48;15.13;;;2.97;;
5157;SDS011;2598;52.364;9.772;2022-07-09T08:13:15;11.20;;;2.40;;
5157;SDS011;2598;52.364;9.772;2022-07-09T08:15:41;11.10;;;1.93;;
5157;SDS011;2598;52.364;9.772;2022-07-09T08:18:07;9.20;;;2.20;;
5157;SDS011;2598;52.364;9.772;2022-07-09T08:20:37;10.70;;;2.10;;
5157;SDS011;2598;52.364;9.772;2022-07-09T08:23:03;10.20;;;2.53;;
5157;SDS011;2598;52.364;9.772;2022-07-09T08:25:29;10.47;;;2.40;;
5157;SDS011;2598;52.364;9.772;2022-07-09T08:27:55;8.90;;;2.00;;
5157;SDS011;2598;52.364;9.772;2022-07-09T08:30:21;11.73;;;2.60;;
5157;SDS011;2598;52.364;9.772;2022-07-09T08:32:47;11.47;;;2.60;;
5157;SDS011;2598;52.364;9.772;2022-07-09T08:35:13;12.43;;;2.60;;
5157;SDS011;2598;52.364;9.772;2022-07-09T08:37:39;10.97;;;2.20;;
5157;SDS011;2598;52.364;9.772;2022-07-09T08:40:05;12.20;;;2.97;;
5157;SDS011;2598;52.364;9.772;2022-07-09T08:42:32;10.70;;;2.90;;
5157;SDS011;2598;52.364;9.772;2022-07-09T08:44:58;9.60;;;2.33;;
5157;SDS011;2598;52.364;9.772;2022-07-09T08:47:24;20.30;;;5.23;;
5157;SDS011;2598;52.364;9.772;2022-07-09T08:49:50;12.33;;;2.17;;
5157;SDS011;2598;52.364;9.772;2022-07-09T08:52:20;10.27;;;1.83;;
5157;SDS011;2598;52.364;9.772;2022-07-09T08:54:46;8.43;;;2.10;;
5157;SDS011;2598;52.364;9.772;2022-07-09T08:57:13;9.73;;;1.93;;
5157;SDS011;2598;52.364;9.772;2022-07-09T08:59:39;9.90;;;2.50;;
5157;SDS011;2598;52.364;9.772;2022-07-09T09:02:05;8.90;;;2.00;;
5157;SDS011;2598;52.364;9.772;2022-07-09T09:04:33;9.73;;;2.40;;
5157;SDS011;2598;52.364;9.772;2022-07-09T09:07:00;8.83;;;2.23;;
5157;SDS011;2598;52.364;9.772;2022-07-09T09:09:26;12.60;;;2.53;;
5157;SDS011;2598;52.364;9.772;2022-07-09T09:11:52;10.13;;;1.70;;
5157;SDS011;2598;52.364;9.772;2022-07-09T09:14:22;11.97;;;2.17;;
5157;SDS011;2598;52.364;9.772;2022-07-09T09:16:50;9.47;;;2.03;;
5157;SDS011;2598;52.364;9.772;2022-07-09T09:19:16;8.60;;;1.90;;
5157;SDS011;2598;52.364;9.772;2022-07-09T09:21:42;8.67;;;2.40;;
5157;SDS011;2598;52.364;9.772;2022-07-09T09:24:08;8.87;;;2.10;;
5157;SDS011;2598;52.364;9.772;2022-07-09T09:26:35;9.30;;;2.20;;
5157;SDS011;2598;52.364;9.772;2022-07-09T09:29:02;9.70;;;2.30;;
5157;SDS011;2598;52.364;9.772;2022-07-09T09:31:35;10.30;;;2.53;;
5157;SDS011;2598;52.364;9.772;2022-07-09T09:36:37;8.53;;;1.70;;
5157;SDS011;2598;52.364;9.772;2022-07-09T09:41:54;9.47;;;1.80;;
5157;SDS011;2598;52.364;9.772;2022-07-09T09:46:51;9.07;;;2.43;;
5157;SDS011;2598;52.364;9.772;2022-07-09T09:49:17;8.97;;;1.80;;
5157;SDS011;2598;52.364;9.772;2022-07-09T09:52:25;8.47;;;2.13;;
5157;SDS011;2598;52.364;9.772;2022-07-09T09:54:33;10.10;;;2.27;;
5157;SDS011;2598;52.364;9.772;2022-07-09T09:56:59;7.87;;;1.90;;
5157;SDS011;2598;52.364;9.772;2022-07-09T09:59:27;8.90;;;1.90;;
5157;SDS011;2598;52.364;9.772;2022-07-09T10:01:53;8.83;;;1.83;;
5157;SDS011;2598;52.364;9.772;2022-07-09T10:04:19;12.23;;;1.93;;
5157;SDS011;2598;52.364;9.772;2022-07-09T10:06:46;8.27;;;1.80;;
5157;SDS011;2598;52.364;9.772;2022-07-09T10:09:13;7.77;;;1.50;;
5157;SDS011;2598;52.364;9.772;2022-07-09T10:11:40;11.60;;;1.60;;
5157;SDS011;2598;52.364;9.772;2022-07-09T10:14:06;10.80;;;1.93;;
5157;SDS011;2598;52.364;9.772;2022-07-09T10:16:36;8.60;;;1.87;;
5157;SDS011;2598;52.364;9.772;2022-07-09T10:19:02;8.20;;;1.67;;
5157;SDS011;2598;52.364;9.772;2022-07-09T10:21:41;11.50;;;2.00;;
5157;SDS011;2598;52.364;9.772;2022-07-09T10:24:08;7.20;;;1.77;;
5157;SDS011;2598;52.364;9.772;2022-07-09T10:26:43;9.80;;;1.83;;
5157;SDS011;2598;52.364;9.772;2022-07-09T10:29:20;8.67;;;1.77;;
5157;SDS011;2598;52.364;9.772;2022-07-09T10:31:46;9.10;;;1.73;;
5157;SDS011;2598;52.364;9.772;2022-07-09T10:34:16;10.17;;;1.90;;
5157;SDS011;2598;52.364;9.772;2022-07-09T10:37:06;9.53;;;1.90;;
5157;SDS011;2598;52.364;9.772;2022-07-09T10:39:32;7.50;;;1.67;;
5157;SDS011;2598;52.364;9.772;2022-07-09T10:41:59;7.20;;;1.30;;
5157;SDS011;2598;52.364;9.772;2022-07-09T10:44:25;8.43;;;1.77;;
5157;SDS011;2598;52.364;9.772;2022-07-09T10:46:57;7.87;;;1.67;;
5157;SDS011;2598;52.364;9.772;2022-07-09T10:49:24;10.47;;;1.80;;
5157;SDS011;2598;52.364;9.772;2022-07-09T10:51:54;8.07;;;1.60;;
5157;SDS011;2598;52.364;9.772;2022-07-09T10:54:21;13.33;;;1.80;;
5157;SDS011;2598;52.364;9.772;2022-07-09T10:56:47;7.00;;;1.43;;
5157;SDS011;2598;52.364;9.772;2022-07-09T10:59:16;10.73;;;1.70;;
5157;SDS011;2598;52.364;9.772;2022-07-09T11:01:45;7.23;;;1.33;;
5157;SDS011;2598;52.364;9.772;2022-07-09T11:04:11;8.00;;;1.70;;
5157;SDS011;2598;52.364;9.772;2022-07-09T11:06:44;10.17;;;1.73;;
5157;SDS011;2598;52.364;9.772;2022-07-09T11:09:11;8.53;;;1.40;;
5157;SDS011;2598;52.364;9.772;2022-07-09T11:11:38;8.20;;;1.30;;
5157;SDS011;2598;52.364;9.772;2022-07-09T11:14:04;7.73;;;1.50;;
5157;SDS011;2598;52.364;9.772;2022-07-09T11:16:30;7.33;;;1.33;;
5157;SDS011;2598;52.364;9.772;2022-07-09T11:18:55;7.50;;;1.20;;
5157;SDS011;2598;52.364;9.772;2022-07-09T11:21:23;6.63;;;1.00;;
5157;SDS011;2598;52.364;9.772;2022-07-09T11:23:49;8.07;;;1.43;;
5157;SDS011;2598;52.364;9.772;2022-07-09T11:26:18;7.10;;;1.57;;
5157;SDS011;2598;52.364;9.772;2022-07-09T11:28:44;11.03;;;1.20;;
5157;SDS011;2598;52.364;9.772;2022-07-09T11:31:12;7.00;;;1.30;;
5157;SDS011;2598;52.364;9.772;2022-07-09T11:33:38;8.00;;;1.30;;
5157;SDS011;2598;52.364;9.772;2022-07-09T11:36:23;8.20;;;1.60;;
5157;SDS011;2598;52.364;9.772;2022-07-09T11:38:49;7.20;;;1.30;;
5157;SDS011;2598;52.364;9.772;2022-07-09T11:41:15;7.20;;;1.20;;
5157;SDS011;2598;52.364;9.772;2022-07-09T11:43:48;7.77;;;1.50;;
5157;SDS011;2598;52.364;9.772;2022-07-09T11:46:20;7.03;;;1.30;;
5157;SDS011;2598;52.364;9.772;2022-07-09T11:48:50;7.00;;;1.30;;
5157;SDS011;2598;52.364;9.772;2022-07-09T11:51:30;10.03;;;2.00;;
5157;SDS011;2598;52.364;9.772;2022-07-09T11:53:56;7.80;;;1.40;;
5157;SDS011;2598;52.364;9.772;2022-07-09T11:56:22;7.57;;;1.43;;
5157;SDS011;2598;52.364;9.772;2022-07-09T11:58:49;7.10;;;1.27;;
5157;SDS011;2598;52.364;9.772;2022-07-09T12:01:15;7.47;;;1.47;;
5157;SDS011;2598;52.364;9.772;2022-07-09T12:03:46;8.00;;;1.33;;
5157;SDS011;2598;52.364;9.772;2022-07-09T12:06:12;7.20;;;1.40;;
5157;SDS011;2598;52.364;9.772;2022-07-09T12:08:39;8.97;;;1.60;;
5157;SDS011;2598;52.364;9.772;2022-07-09T12:11:05;9.80;;;1.30;;
5157;SDS011;2598;52.364;9.772;2022-07-09T12:13:31;7.60;;;1.50;;
5157;SDS011;2598;52.364;9.772;2022-07-09T12:15:57;7.23;;;1.30;;
5157;SDS011;2598;52.364;9.772;2022-07-09T12:18:23;7.20;;;1.53;;
5157;SDS011;2598;52.364;9.772;2022-07-09T12:20:49;7.10;;;1.23;;
5157;SDS011;2598;52.364;9.772;2022-07-09T12:23:15;7.63;;;1.23;;
5157;SDS011;2598;52.364;9.772;2022-07-09T12:25:42;8.70;;;1.30;;
5157;SDS011;2598;52.364;9.772;2022-07-09T12:28:08;6.87;;;1.23;;
5157;SDS011;2598;52.364;9.772;2022-07-09T12:30:34;7.20;;;1.23;;
5157;SDS011;2598;52.364;9.772;2022-07-09T12:33:00;8.27;;;1.40;;
5157;SDS011;2598;52.364;9.772;2022-07-09T12:35:26;6.67;;;1.20;;
5157;SDS011;2598;52.364;9.772;2022-07-09T12:37:52;7.37;;;1.37;;
5157;SDS011;2598;52.364;9.772;2022-07-09T12:40:19;7.97;;;1.43;;
5157;SDS011;2598;52.364;9.772;2022-07-09T12:42:45;8.57;;;1.70;;
5157;SDS011;2598;52.364;9.772;2022-07-09T12:45:11;8.00;;;1.50;;
5157;SDS011;2598;52.364;9.772;2022-07-09T12:47:38;8.17;;;1.20;;
5157;SDS011;2598;52.364;9.772;2022-07-09T12:50:04;7.63;;;1.17;;
5157;SDS011;2598;52.364;9.772;2022-07-09T12:52:31;7.17;;;1.37;;
5157;SDS011;2598;52.364;9.772;2022-07-09T12:54:58;10.23;;;1.60;;
5157;SDS011;2598;52.364;9.772;2022-07-09T12:57:24;10.10;;;1.40;;
5157;SDS011;2598;52.364;9.772;2022-07-09T12:59:50;11.00;;;2.57;;
5157;SDS011;2598;52.364;9.772;2022-07-09T13:02:16;8.70;;;2.07;;
5157;SDS011;2598;52.364;9.772;2022-07-09T13:04:42;9.83;;;2.30;;
5157;SDS011;2598;52.364;9.772;2022-07-09T13:07:08;9.60;;;2.40;;
5157;SDS011;2598;52.364;9.772;2022-07-09T13:09:34;8.83;;;2.03;;
5157;SDS011;2598;52.364;9.772;2022-07-09T13:12:00;8.60;;;2.03;;
5157;SDS011;2598;52.364;9.772;2022-07-09T13:14:26;10.00;;;2.23;;
5157;SDS011;2598;52.364;9.772;2022-07-09T13:16:52;9.23;;;2.33;;
5157;SDS011;2598;52.364;9.772;2022-07-09T13:19:18;9.00;;;2.20;;
5157;SDS011;2598;52.364;9.772;2022-07-09T13:21:44;8.67;;;2.17;;
5157;SDS011;2598;52.364;9.772;2022-07-09T13:24:10;8.73;;;2.30;;
5157;SDS011;2598;52.364;9.772;2022-07-09T13:26:36;8.80;;;2.30;;
5157;SDS011;2598;52.364;9.772;2022-07-09T13:29:02;9.87;;;2.13;;
5157;SDS011;2598;52.364;9.772;2022-07-09T13:31:28;10.03;;;1.60;;
5157;SDS011;2598;52.364;9.772;2022-07-09T13:33:54;8.47;;;2.13;;
5157;SDS011;2598;52.364;9.772;2022-07-09T13:36:20;10.10;;;2.20;;
5157;SDS011;2598;52.364;9.772;2022-07-09T13:38:46;8.33;;;1.80;;
5157;SDS011;2598;52.364;9.772;2022-07-09T13:41:12;9.17;;;2.00;;
5157;SDS011;2598;52.364;9.772;2022-07-09T13:43:38;8.73;;;1.93;;
5157;SDS011;2598;52.364;9.772;2022-07-09T13:46:04;8.07;;;1.63;;
5157;SDS011;2598;52.364;9.772;2022-07-09T13:48:32;7.80;;;1.60;;
5157;SDS011;2598;52.364;9.772;2022-07-09T13:50:58;8.30;;;1.70;;
5157;SDS011;2598;52.364;9.772;2022-07-09T13:53:25;9.10;;;1.77;;
5157;SDS011;2598;52.364;9.772;2022-07-09T13:55:53;8.40;;;2.10;;
5157;SDS011;2598;52.364;9.772;2022-07-09T13:58:19;9.93;;;1.90;;
5157;SDS011;2598;52.364;9.772;2022-07-09T14:00:45;8.83;;;1.87;;
5157;SDS011;2598;52.364;9.772;2022-07-09T14:03:11;8.23;;;1.57;;
5157;SDS011;2598;52.364;9.772;2022-07-09T14:05:37;8.30;;;1.97;;
5157;SDS011;2598;52.364;9.772;2022-07-09T14:08:03;9.60;;;1.50;;
5157;SDS011;2598;52.364;9.772;2022-07-09T14:10:30;8.90;;;1.80;;
5157;SDS011;2598;52.364;9.772;2022-07-09T14:12:57;8.60;;;1.60;;
5157;SDS011;2598;52.364;9.772;2022-07-09T14:15:23;12.27;;;2.30;;
5157;SDS011;2598;52.364;9.772;2022-07-09T14:17:49;9.07;;;1.67;;
5157;SDS011;2598;52.364;9.772;2022-07-09T14:20:16;8.40;;;1.90;;
5157;SDS011;2598;52.364;9.772;2022-07-09T14:22:42;8.70;;;1.70;;
5157;SDS011;2598;52.364;9.772;2022-07-09T14:25:08;9.97;;;1.60;;
5157;SDS011;2598;52.364;9.772;2022-07-09T14:27:34;8.73;;;1.37;;
5157;SDS011;2598;52.364;9.772;2022-07-09T14:30:00;8.77;;;1.40;;
5157;SDS011;2598;52.364;9.772;2022-07-09T14:32:26;10.07;;;1.80;;
5157;SDS011;2598;52.364;9.772;2022-07-09T14:34:52;7.70;;;1.30;;
5157;SDS011;2598;52.364;9.772;2022-07-09T14:37:18;8.23;;;1.50;;
5157;SDS011;2598;52.364;9.772;2022-07-09T14:39:44;8.57;;;1.73;;
5157;SDS011;2598;52.364;9.772;2022-07-09T14:42:10;9.67;;;1.63;;
5157;SDS011;2598;52.364;9.772;2022-07-09T14:44:36;8.67;;;1.47;;
5157;SDS011;2598;52.364;9.772;2022-07-09T14:47:03;7.90;;;1.30;;
5157;SDS011;2598;52.364;9.772;2022-07-09T14:49:29;8.17;;;1.60;;
5157;SDS011;2598;52.364;9.772;2022-07-09T14:51:55;10.80;;;1.90;;
5157;SDS011;2598;52.364;9.772;2022-07-09T14:54:21;8.40;;;1.47;;
5157;SDS011;2598;52.364;9.772;2022-07-09T14:56:47;9.03;;;1.60;;
5157;SDS011;2598;52.364;9.772;2022-07-09T14:59:13;8.27;;;1.43;;
5157;SDS011;2598;52.364;9.772;2022-07-09T15:01:46;7.63;;;1.40;;
5157;SDS011;2598;52.364;9.772;2022-07-09T15:04:12;7.20;;;1.30;;
5157;SDS011;2598;52.364;9.772;2022-07-09T15:06:38;8.10;;;1.23;;
5157;SDS011;2598;52.364;9.772;2022-07-09T15:09:04;9.87;;;1.87;;
5157;SDS011;2598;52.364;9.772;2022-07-09T15:11:30;8.17;;;1.30;;